createdAt,value
2022-11-20T00:00:51.678Z,100867.78
2022-11-20T00:03:22.814Z,100860.09
2022-11-20T00:05:53.343Z,100867.78
2022-11-20T00:08:24.356Z,100869.47
2022-11-20T00:10:55.238Z,100873.34
2022-11-20T00:13:26.103Z,100876.19
2022-11-20T00:16:01.472Z,100872.34
2022-11-20T00:18:32.121Z,100872.69
2022-11-20T00:21:07.865Z,100874.38
2022-11-20T00:23:39.381Z,100881.09
2022-11-20T00:26:13.274Z,100873.22
2022-11-20T00:28:44.708Z,100879.06
2022-11-20T00:31:17.708Z,100864.50
2022-11-20T00:33:49.146Z,100872.84
2022-11-20T00:36:22.413Z,100877.91
2022-11-20T00:38:57.870Z,100885.72
2022-11-20T00:41:32.207Z,100887.78
2022-11-20T00:44:03.453Z,100889.13
2022-11-20T00:46:34.057Z,100894.19
2022-11-20T00:49:05.423Z,100888.66
2022-11-20T00:51:36.840Z,100890.84
2022-11-20T00:54:08.133Z,100888.16
2022-11-20T00:56:38.948Z,100892.00
2022-11-20T00:59:10.956Z,100892.50
2022-11-20T01:01:41.657Z,100893.47
2022-11-20T01:04:12.867Z,100893.47
2022-11-20T01:06:43.668Z,100897.16
2022-11-20T01:09:15.821Z,100899.50
2022-11-20T01:11:47.783Z,100894.78
2022-11-20T01:14:21.761Z,100890.69
2022-11-20T01:16:54.098Z,100890.69
2022-11-20T01:19:25.543Z,100890.16
2022-11-20T01:21:57.181Z,100889.66
2022-11-20T01:24:28.326Z,100901.06
2022-11-20T01:26:59.202Z,100876.44
2022-11-20T01:29:32.436Z,100875.75
2022-11-20T01:32:02.975Z,100869.31
2022-11-20T01:34:34.116Z,100870.63
2022-11-20T01:37:05.296Z,100875.84
2022-11-20T01:39:35.680Z,100872.31
2022-11-20T01:42:28.417Z,100862.56
2022-11-20T01:45:01.863Z,100868.31
2022-11-20T01:47:43.310Z,100860.22
2022-11-20T01:50:21.372Z,100851.47
2022-11-20T01:53:04.836Z,100855.78
2022-11-20T01:55:39.474Z,100854.47
2022-11-20T01:58:10.449Z,100855.97
2022-11-20T02:00:41.456Z,100861.53
2022-11-20T02:03:25.307Z,100862.56
2022-11-20T02:06:24.180Z,100867.53
2022-11-20T02:09:01.168Z,100861.66
2022-11-20T02:11:33.657Z,100858.78
2022-11-20T02:14:04.032Z,100858.13
2022-11-20T02:16:38.175Z,100852.38
2022-11-20T02:19:20.044Z,100847.06
2022-11-20T02:22:06.652Z,100840.94
2022-11-20T02:24:37.262Z,100840.44
2022-11-20T02:27:11.876Z,100835.06
2022-11-20T02:29:55.414Z,100830.19
2022-11-20T02:33:30.928Z,100835.50
2022-11-20T02:36:29.757Z,100818.31
2022-11-20T02:39:00.210Z,100817.31
2022-11-20T02:41:45.507Z,100819.16
2022-11-20T02:44:16.977Z,100817.97
2022-11-20T02:47:02.656Z,100814.13
2022-11-20T02:49:39.822Z,100816.34
2022-11-20T02:52:10.976Z,100817.22
2022-11-20T02:54:41.555Z,100814.38
2022-11-20T02:57:11.906Z,100809.09
2022-11-20T02:59:42.611Z,100807.91
2022-11-20T03:02:13.543Z,100805.88
2022-11-20T03:04:44.118Z,100811.34
2022-11-20T03:07:14.629Z,100803.78
2022-11-20T03:09:45.780Z,100802.03
2022-11-20T03:12:18.263Z,100811.94
2022-11-20T03:14:52.775Z,100805.72
2022-11-20T03:17:23.777Z,100805.38
2022-11-20T03:19:54.262Z,100805.03
2022-11-20T03:22:25.176Z,100797.63
2022-11-20T03:24:56.580Z,100799.66
2022-11-20T03:27:27.265Z,100784.31
2022-11-20T03:29:57.838Z,100783.81
2022-11-20T03:32:28.545Z,100780.94
2022-11-20T03:34:59.810Z,100777.22
2022-11-20T03:37:30.652Z,100778.63
2022-11-20T03:40:04.670Z,100782.19
2022-11-20T03:42:48.793Z,100767.84
2022-11-20T03:45:21.105Z,100779.84
2022-11-20T03:47:52.324Z,100782.34
2022-11-20T03:50:23.041Z,100779.66
2022-11-20T03:53:02.930Z,100771.03
2022-11-20T03:55:33.822Z,100763.78
2022-11-20T03:58:04.589Z,100758.75
2022-11-20T04:00:34.889Z,100757.56
2022-11-20T04:03:06.657Z,100768.78
2022-11-20T04:05:40.446Z,100752.53
2022-11-20T04:08:11.115Z,100746.13
2022-11-20T04:10:41.692Z,100743.69
2022-11-20T04:13:12.354Z,100747.41
2022-11-20T04:15:46.029Z,100724.19
2022-11-20T04:18:19.566Z,100727.31
2022-11-20T04:20:50.278Z,100719.16
2022-11-20T04:23:28.455Z,100711.06
2022-11-20T04:26:09.830Z,100713.59
2022-11-20T04:28:40.850Z,100701.31
2022-11-20T04:31:14.045Z,100700.19
2022-11-20T04:33:45.291Z,100704.81
2022-11-20T04:36:27.667Z,100696.78
2022-11-20T04:39:00.464Z,100690.84
2022-11-20T04:41:34.467Z,100678.00
2022-11-20T04:44:08.098Z,100681.00
2022-11-20T04:46:48.612Z,100664.38
2022-11-20T04:49:19.001Z,100666.56
2022-11-20T04:51:56.423Z,100662.84
2022-11-20T04:54:26.976Z,100657.75
2022-11-20T04:56:58.074Z,100657.44
2022-11-20T04:59:28.885Z,100643.88
2022-11-20T05:01:59.945Z,100653.88
2022-11-20T05:04:30.461Z,100668.00
2022-11-20T05:07:01.293Z,100636.50
2022-11-20T05:09:36.098Z,100641.16
2022-11-20T05:12:07.067Z,100633.84
2022-11-20T05:14:37.991Z,100636.53
2022-11-20T05:17:09.165Z,100627.78
2022-11-20T05:19:40.378Z,100618.66
2022-11-20T05:22:13.717Z,100607.22
2022-11-20T05:24:44.588Z,100602.84
2022-11-20T05:27:15.459Z,100596.25
2022-11-20T05:29:46.838Z,100587.13
2022-11-20T05:32:17.379Z,100583.03
2022-11-20T05:34:48.085Z,100586.78
2022-11-20T05:37:18.419Z,100583.69
2022-11-20T05:39:48.688Z,100571.84
2022-11-20T05:42:34.403Z,100581.47
2022-11-20T05:45:07.870Z,100572.81
2022-11-20T05:47:38.206Z,100574.72
2022-11-20T05:50:12.291Z,100578.28
2022-11-20T05:52:43.241Z,100575.81
2022-11-20T05:55:13.788Z,100574.38
2022-11-20T05:57:44.803Z,100563.78
2022-11-20T06:00:16.207Z,100564.19
2022-11-20T06:02:46.984Z,100563.34
2022-11-20T06:05:18.183Z,100565.00
2022-11-20T06:07:49.338Z,100562.94
2022-11-20T06:10:20.613Z,100570.88
2022-11-20T06:12:51.389Z,100573.19
2022-11-20T06:15:26.436Z,100569.22
2022-11-20T06:17:58.259Z,100566.09
2022-11-20T06:20:28.726Z,100570.06
2022-11-20T06:22:59.366Z,100575.06
2022-11-20T06:25:30.225Z,100577.56
2022-11-20T06:28:01.675Z,100574.63
2022-11-20T06:30:32.784Z,100575.66
2022-11-20T06:33:04.873Z,100569.19
2022-11-20T06:35:37.220Z,100578.53
2022-11-20T06:38:08.074Z,100575.81
2022-11-20T06:40:38.815Z,100574.16
2022-11-20T06:43:10.206Z,100573.75
2022-11-20T06:45:40.963Z,100571.28
2022-11-20T06:48:11.737Z,100575.22
2022-11-20T06:50:42.436Z,100582.09
2022-11-20T06:53:13.708Z,100576.22
2022-11-20T06:55:48.548Z,100580.75
2022-11-20T06:58:20.004Z,100580.75
2022-11-20T07:00:51.508Z,100585.69
2022-11-20T07:03:22.036Z,100594.84
2022-11-20T07:05:52.952Z,100591.50
2022-11-20T07:08:23.901Z,100595.25
2022-11-20T07:10:54.349Z,100592.94
2022-11-20T07:13:25.166Z,100593.50
2022-11-20T07:15:55.516Z,100593.50
2022-11-20T07:18:26.313Z,100589.31
2022-11-20T07:20:57.189Z,100594.69
2022-11-20T07:23:27.576Z,100591.38
2022-11-20T07:25:58.900Z,100600.53
2022-11-20T07:28:30.052Z,100593.84
2022-11-20T07:31:00.450Z,100595.91
2022-11-20T07:33:31.498Z,100595.09
2022-11-20T07:36:02.349Z,100593.84
2022-11-20T07:38:33.059Z,100597.97
2022-11-20T07:41:03.985Z,100611.47
2022-11-20T07:43:38.467Z,100603.34
2022-11-20T07:46:12.010Z,100609.97
2022-11-20T07:48:44.784Z,100605.38
2022-11-20T07:51:15.469Z,100606.97
2022-11-20T07:53:46.269Z,100611.56
2022-11-20T07:56:16.857Z,100609.88
2022-11-20T07:58:47.143Z,100600.50
2022-11-20T08:01:18.164Z,100613.16
2022-11-20T08:03:49.053Z,100623.13
2022-11-20T08:06:21.599Z,100617.75
2022-11-20T08:08:53.588Z,100620.63
2022-11-20T08:11:43.282Z,100613.75
2022-11-20T08:14:13.910Z,100613.75
2022-11-20T08:16:49.901Z,100620.56
2022-11-20T08:19:21.535Z,100631.81
2022-11-20T08:21:52.348Z,100625.38
2022-11-20T08:24:22.889Z,100630.13
2022-11-20T08:26:53.974Z,100619.34
2022-11-20T08:29:31.219Z,100625.97
2022-11-20T08:32:02.086Z,100622.25
2022-11-20T08:34:32.340Z,100620.56
2022-11-20T08:37:05.587Z,100620.97
2022-11-20T08:39:36.627Z,100632.88
2022-11-20T08:42:11.089Z,100627.88
2022-11-20T08:44:42.213Z,100627.88
2022-11-20T08:47:12.702Z,100633.06
2022-11-20T08:49:43.072Z,100631.59
2022-11-20T08:52:14.021Z,100640.34
2022-11-20T08:54:45.462Z,100634.94
2022-11-20T08:57:16.215Z,100637.00
2022-11-20T09:02:38.702Z,100629.94
2022-11-20T09:05:11.095Z,100627.88
2022-11-20T09:07:44.058Z,100628.06
2022-11-20T09:10:24.071Z,100633.66
2022-11-20T09:12:57.060Z,100633.44
2022-11-20T09:15:27.983Z,100639.88
2022-11-20T09:18:01.417Z,100645.22
2022-11-20T09:20:33.381Z,100651.66
2022-11-20T09:23:04.384Z,100652.03
2022-11-20T09:25:35.493Z,100662.88
2022-11-20T09:28:08.696Z,100665.13
2022-11-20T09:30:39.270Z,100670.53
2022-11-20T09:33:12.469Z,100674.25
2022-11-20T09:35:45.688Z,100665.84
2022-11-20T09:38:16.593Z,100676.75
2022-11-20T09:40:52.990Z,100687.09
2022-11-20T09:43:49.944Z,100688.13
2022-11-20T09:46:43.254Z,100686.09
2022-11-20T09:49:52.648Z,100698.47
2022-11-20T09:52:57.269Z,100699.47
2022-11-20T09:55:28.404Z,100682.84
2022-11-20T09:58:00.533Z,100690.31
2022-11-20T10:00:31.797Z,100696.34
2022-11-20T10:03:16.344Z,100691.31
2022-11-20T10:05:53.724Z,100700.06
2022-11-20T10:08:56.059Z,100704.00
2022-11-20T10:11:44.072Z,100712.53
2022-11-20T10:14:39.521Z,100716.25
2022-11-20T10:17:50.164Z,100738.44
2022-11-20T10:20:49.487Z,100725.09
2022-11-20T10:23:32.337Z,100721.22
2022-11-20T10:26:20.474Z,100716.00
2022-11-20T10:29:37.787Z,100721.00
2022-11-20T10:32:32.763Z,100729.31
2022-11-20T10:35:30.940Z,100729.84
2022-11-20T10:38:03.441Z,100726.50
2022-11-20T10:40:38.658Z,100727.53
2022-11-20T10:43:16.069Z,100738.31
2022-11-20T10:45:51.632Z,100743.06
2022-11-20T10:48:27.994Z,100737.69
2022-11-20T10:51:16.329Z,100737.03
2022-11-20T10:54:14.316Z,100742.44
2022-11-20T10:56:56.579Z,100742.78
2022-11-20T10:59:52.315Z,100736.94
2022-11-20T11:02:34.737Z,100736.72
2022-11-20T11:05:24.558Z,100739.41
2022-11-20T11:07:59.323Z,100744.16
2022-11-20T11:10:48.720Z,100753.09
2022-11-20T11:13:31.344Z,100757.00
2022-11-20T11:16:02.339Z,100763.41
2022-11-20T11:18:37.386Z,100770.47
2022-11-20T11:21:08.334Z,100768.81
2022-11-20T11:23:44.605Z,100766.31
2022-11-20T11:26:24.347Z,100760.56
2022-11-20T11:29:01.664Z,100778.78
2022-11-20T11:31:35.433Z,100789.56
2022-11-20T11:34:09.261Z,100792.44
2022-11-20T11:36:40.537Z,100797.00
2022-11-20T11:39:17.359Z,100794.09
2022-11-20T11:41:48.401Z,100800.25
2022-11-20T11:44:37.688Z,100808.91
2022-11-20T11:47:14.458Z,100808.53
2022-11-20T11:49:45.497Z,100813.94
2022-11-20T11:52:19.786Z,100825.63
2022-11-20T11:55:00.220Z,100818.38
2022-11-20T11:57:40.236Z,100823.94
2022-11-20T12:00:16.843Z,100821.59
2022-11-20T12:02:48.293Z,100842.44
2022-11-20T12:05:25.162Z,100833.25
2022-11-20T12:08:12.179Z,100822.75
2022-11-20T12:10:43.805Z,100825.09
2022-11-20T12:13:23.208Z,100829.03
2022-11-20T12:15:53.458Z,100831.94
2022-11-20T12:18:24.996Z,100834.34
2022-11-20T12:21:22.147Z,100838.78
2022-11-20T12:24:05.822Z,100841.66
2022-11-20T12:26:58.336Z,100843.31
2022-11-20T12:29:53.536Z,100845.00
2022-11-20T12:32:42.141Z,100852.44
2022-11-20T12:35:16.134Z,100849.66
2022-11-20T12:38:05.250Z,100855.91
2022-11-20T12:40:58.042Z,100857.47
2022-11-20T12:43:54.390Z,100855.34
2022-11-20T12:46:55.351Z,100854.88
2022-11-20T12:49:31.698Z,100849.84
2022-11-20T12:52:28.570Z,100847.41
2022-11-20T12:55:13.852Z,100847.81
2022-11-20T12:58:01.223Z,100851.50
2022-11-20T13:00:33.470Z,100850.16
2022-11-20T13:03:16.097Z,100846.28
2022-11-20T13:06:15.716Z,100844.78
2022-11-20T13:09:07.816Z,100845.16
2022-11-20T13:11:50.234Z,100831.66
2022-11-20T13:14:55.850Z,100840.47
2022-11-20T13:17:32.678Z,100837.94
2022-11-20T13:20:05.334Z,100838.78
2022-11-20T13:22:52.947Z,100843.47
2022-11-20T13:25:36.753Z,100838.25
2022-11-20T13:28:14.300Z,100837.78
2022-11-20T13:30:55.747Z,100830.50
2022-11-20T13:33:31.915Z,100824.66
2022-11-20T13:36:04.873Z,100822.63
2022-11-20T13:38:50.690Z,100825.31
2022-11-20T13:41:42.910Z,100827.53
2022-11-20T13:44:40.505Z,100827.53
2022-11-20T13:47:27.238Z,100819.16
2022-11-20T13:50:01.192Z,100822.75
2022-11-20T13:52:34.367Z,100825.59
2022-11-20T13:55:16.661Z,100823.47
2022-11-20T13:58:22.746Z,100816.72
2022-11-20T14:00:59.667Z,100813.34
2022-11-20T14:03:59.141Z,100806.94
2022-11-20T14:06:29.208Z,100802.38
2022-11-20T14:09:01.068Z,100808.69
2022-11-20T14:11:32.707Z,100809.34
2022-11-20T14:14:06.274Z,100812.41
2022-11-20T14:16:41.614Z,100812.41
2022-11-20T14:19:28.395Z,100823.81
2022-11-20T14:22:23.803Z,100812.41
2022-11-20T14:25:16.132Z,100827.53
2022-11-20T14:27:58.885Z,100829.94
2022-11-20T14:30:49.828Z,100842.03
2022-11-20T14:33:21.820Z,100838.66
2022-11-20T14:36:01.115Z,100828.72
2022-11-20T14:38:34.460Z,100839.03
2022-11-20T14:41:17.560Z,100845.72
2022-11-20T14:43:50.231Z,100844.22
2022-11-20T14:46:21.453Z,100844.06
2022-11-20T14:48:58.474Z,100837.34
2022-11-20T14:51:30.878Z,100836.50
2022-11-20T14:54:21.238Z,100835.16
2022-11-20T14:57:03.396Z,100834.03
2022-11-20T14:59:36.895Z,100828.66
2022-11-20T15:02:16.509Z,100837.06
2022-11-20T15:04:59.225Z,100828.97
2022-11-20T15:07:39.690Z,100825.81
2022-11-20T15:10:13.911Z,100823.59
2022-11-20T15:12:54.065Z,100830.34
2022-11-20T15:15:28.543Z,100825.63
2022-11-20T15:17:59.481Z,100827.00
2022-11-20T15:20:34.899Z,100823.28
2022-11-20T15:23:15.518Z,100819.41
2022-11-20T15:25:46.702Z,100814.56
2022-11-20T15:28:29.923Z,100817.59
2022-11-20T15:31:01.193Z,100816.94
2022-11-20T15:33:32.681Z,100813.59
2022-11-20T15:36:04.011Z,100813.41
2022-11-20T15:38:35.154Z,100804.84
2022-11-20T15:41:06.825Z,100809.88
2022-11-20T15:43:40.623Z,100806.72
2022-11-20T15:46:19.173Z,100802.16
2022-11-20T15:48:56.487Z,100794.63
2022-11-20T15:51:33.268Z,100802.19
2022-11-20T15:54:12.969Z,100794.44
2022-11-20T15:56:43.858Z,100786.72
2022-11-20T15:59:16.538Z,100787.72
2022-11-20T16:01:47.213Z,100782.34
2022-11-20T16:04:20.617Z,100780.50
2022-11-20T16:06:51.812Z,100773.41
2022-11-20T16:09:22.344Z,100775.06
2022-11-20T16:11:54.268Z,100769.84
2022-11-20T16:14:44.188Z,100771.72
2022-11-20T16:17:37.774Z,100774.94
2022-11-20T16:20:12.104Z,100774.94
2022-11-20T16:22:44.819Z,100774.94
2022-11-20T16:25:15.061Z,100776.97
2022-11-20T16:27:45.763Z,100782.34
2022-11-20T16:30:19.414Z,100779.84
2022-11-20T16:32:49.725Z,100777.50
2022-11-20T16:35:20.418Z,100780.19
2022-11-20T16:37:51.247Z,100781.38
2022-11-20T16:40:22.097Z,100770.59
2022-11-20T16:42:52.689Z,100774.50
2022-11-20T16:45:31.335Z,100763.91
2022-11-20T16:48:04.810Z,100765.94
2022-11-20T16:50:35.310Z,100767.59
2022-11-20T16:53:06.045Z,100763.53
2022-11-20T16:55:36.291Z,100759.00
2022-11-20T16:58:07.876Z,100755.47
2022-11-20T17:00:43.627Z,100742.00
2022-11-20T17:03:18.974Z,100747.09
2022-11-20T17:05:49.212Z,100748.47
2022-11-20T17:08:22.580Z,100738.91
2022-11-20T17:10:55.004Z,100722.91
2022-11-20T17:13:26.796Z,100723.94
2022-11-20T17:16:05.742Z,100727.63
2022-11-20T17:18:37.138Z,100735.72
2022-11-20T17:21:11.860Z,100736.72
2022-11-20T17:23:44.515Z,100733.22
2022-11-20T17:26:21.005Z,100744.13
2022-11-20T17:28:57.519Z,100740.63
2022-11-20T17:31:29.438Z,100737.06
2022-11-20T17:34:03.487Z,100730.88
2022-11-20T17:36:34.078Z,100728.34
2022-11-20T17:39:04.977Z,100713.88
2022-11-20T17:41:36.429Z,100708.03
2022-11-20T17:44:07.366Z,100712.19
2022-11-20T17:46:38.016Z,100710.72
2022-11-20T17:49:09.239Z,100710.53
2022-11-20T17:51:41.567Z,100722.13
2022-11-20T17:54:12.525Z,100731.22
2022-11-20T17:57:01.148Z,100725.16
2022-11-20T17:59:31.664Z,100729.34
2022-11-20T18:02:03.872Z,100723.31
2022-11-20T18:04:34.905Z,100721.59
2022-11-20T18:07:06.225Z,100736.91
2022-11-20T18:09:36.993Z,100746.84
2022-11-20T18:12:07.567Z,100748.69
2022-11-20T18:14:38.790Z,100755.91
2022-11-20T18:17:11.934Z,100746.00
2022-11-20T18:20:01.032Z,100731.91
2022-11-20T18:22:39.100Z,100715.56
2022-11-20T18:25:10.076Z,100706.16
2022-11-20T18:27:40.510Z,100713.22
2022-11-20T18:30:12.268Z,100714.91
2022-11-20T18:32:43.643Z,100721.13
2022-11-20T18:35:15.099Z,100729.38
2022-11-20T18:37:45.546Z,100727.03
2022-11-20T18:40:15.938Z,100718.94
2022-11-20T18:43:04.681Z,100721.47
2022-11-20T18:45:34.916Z,100714.22
2022-11-20T18:48:08.650Z,100719.81
2022-11-20T18:50:39.668Z,100724.34
2022-11-20T18:53:09.972Z,100712.75
2022-11-20T18:55:40.685Z,100721.00
2022-11-20T18:58:11.532Z,100725.38
2022-11-20T19:00:42.316Z,100724.72
2022-11-20T19:03:13.081Z,100727.22
2022-11-20T19:05:43.687Z,100738.81
2022-11-20T19:08:14.284Z,100749.75
2022-11-20T19:10:45.087Z,100759.69
2022-11-20T19:13:15.315Z,100759.03
2022-11-20T19:15:45.874Z,100749.28
2022-11-20T19:18:16.860Z,100745.72
2022-11-20T19:20:47.426Z,100745.72
2022-11-20T19:23:19.623Z,100755.66
2022-11-20T19:25:50.575Z,100747.75
2022-11-20T19:28:21.283Z,100759.38
2022-11-20T19:30:52.381Z,100744.59
2022-11-20T19:33:23.301Z,100729.13
2022-11-20T19:35:54.587Z,100723.22
2022-11-20T19:38:26.089Z,100723.78
2022-11-20T19:40:56.497Z,100714.84
2022-11-20T19:43:30.444Z,100718.56
2022-11-20T19:46:01.308Z,100711.84
2022-11-20T19:48:38.425Z,100699.59
2022-11-20T19:51:17.546Z,100689.84
2022-11-20T19:53:49.226Z,100711.72
2022-11-20T19:56:20.593Z,100717.25
2022-11-20T19:58:51.349Z,100720.78
2022-11-20T20:01:24.527Z,100729.88
2022-11-20T20:03:56.212Z,100718.09
2022-11-20T20:06:27.869Z,100720.47
2022-11-20T20:08:58.216Z,100721.47
2022-11-20T20:11:30.743Z,100725.19
2022-11-20T20:14:05.917Z,100733.25
2022-11-20T20:16:36.875Z,100739.97
2022-11-20T20:19:12.559Z,100738.31
2022-11-20T20:21:44.431Z,100745.34
2022-11-20T20:24:14.968Z,100750.06
2022-11-20T20:26:45.489Z,100754.44
2022-11-20T20:29:15.835Z,100744.69
2022-11-20T20:31:46.918Z,100751.06
2022-11-20T20:34:18.013Z,100736.97
2022-11-20T20:36:51.983Z,100736.97
2022-11-20T20:39:22.950Z,100738.81
2022-11-20T20:41:54.827Z,100731.91
2022-11-20T20:44:43.769Z,100732.91
2022-11-20T20:47:14.268Z,100722.84
2022-11-20T20:49:45.905Z,100739.97
2022-11-20T20:52:16.428Z,100737.28
2022-11-20T20:54:46.833Z,100754.09
2022-11-20T20:57:17.043Z,100771.38
2022-11-20T20:59:48.765Z,100782.31
2022-11-20T21:02:19.232Z,100802.13
2022-11-20T21:04:50.974Z,100807.50
2022-11-20T21:07:21.843Z,100813.88
2022-11-20T21:09:53.300Z,100826.47
2022-11-20T21:12:25.229Z,100821.28
2022-11-20T21:14:56.862Z,100831.34
2022-11-20T21:17:28.756Z,100833.38
2022-11-20T21:19:59.244Z,100845.81
2022-11-20T21:22:36.255Z,100844.13
2022-11-20T21:25:08.573Z,100847.81
2022-11-20T21:27:42.296Z,100837.06
2022-11-20T21:30:13.481Z,100840.44
2022-11-20T21:32:48.374Z,100840.75
2022-11-20T21:35:22.628Z,100833.72
2022-11-20T21:37:57.271Z,100833.03
2022-11-20T21:40:27.643Z,100837.41
2022-11-20T21:42:57.955Z,100834.72
2022-11-20T21:45:28.506Z,100834.72
2022-11-20T21:48:01.744Z,100836.06
2022-11-20T21:50:32.500Z,100839.41
2022-11-20T21:53:02.852Z,100844.78
2022-11-20T21:55:32.926Z,100847.66
2022-11-20T21:58:04.029Z,100849.69
2022-11-20T22:00:34.938Z,100846.13
2022-11-20T22:03:05.671Z,100849.69
2022-11-20T22:05:36.972Z,100846.81
2022-11-20T22:08:07.728Z,100855.22
2022-11-20T22:10:38.189Z,100856.22
2022-11-20T22:13:26.895Z,100852.84
2022-11-20T22:16:03.018Z,100861.09
2022-11-20T22:18:36.158Z,100867.63
2022-11-20T22:21:09.356Z,100877.03
2022-11-20T22:23:40.451Z,100878.03
2022-11-20T22:26:15.855Z,100888.78
2022-11-20T22:28:51.061Z,100887.97
2022-11-20T22:31:22.984Z,100883.94
2022-11-20T22:33:54.080Z,100894.00
2022-11-20T22:36:26.486Z,100896.19
2022-11-20T22:38:57.200Z,100902.56
2022-11-20T22:41:29.758Z,100908.25
2022-11-20T22:44:05.221Z,100897.84
2022-11-20T22:46:37.953Z,100906.75
2022-11-20T22:49:09.696Z,100904.22
2022-11-20T22:51:42.054Z,100905.91
2022-11-20T22:54:14.881Z,100909.25
2022-11-20T22:56:46.584Z,100907.25
2022-11-20T22:59:19.379Z,100910.44
2022-11-20T23:01:51.289Z,100900.84
2022-11-20T23:04:22.649Z,100904.22
2022-11-20T23:06:53.642Z,100901.53
2022-11-20T23:09:24.545Z,100909.44
2022-11-20T23:11:55.690Z,100905.91
2022-11-20T23:14:27.810Z,100911.59
2022-11-20T23:16:58.583Z,100910.78
2022-11-20T23:19:29.964Z,100918.84
2022-11-20T23:22:00.418Z,100922.34
2022-11-20T23:24:31.210Z,100923.34
2022-11-20T23:27:01.970Z,100932.09
2022-11-20T23:29:32.394Z,100930.41
2022-11-20T23:32:03.436Z,100940.81
2022-11-20T23:34:34.341Z,100946.88
2022-11-20T23:37:05.637Z,100948.88
2022-11-20T23:39:36.778Z,100955.94
2022-11-20T23:42:07.401Z,100956.13
2022-11-20T23:44:41.322Z,100962.16
2022-11-20T23:47:12.347Z,100963.84
2022-11-20T23:49:43.102Z,100961.50
2022-11-20T23:52:13.734Z,100968.38
2022-11-20T23:54:46.660Z,100966.69
2022-11-20T23:57:17.181Z,100981.78
2022-11-20T23:59:56.584Z,100978.09
